sensor_id;sensor_type;location;lat;lon;timestamp;temperature;humidity
81218;DHT22;70689;52.494;13.420;2023-07-09T00:00:18;23.60;28.20
81218;DHT22;70689;52.494;13.420;2023-07-09T00:02:44;23.60;28.30
81218;DHT22;70689;52.494;13.420;2023-07-09T00:05:15;23.70;28.10
81218;DHT22;70689;52.494;13.420;2023-07-09T00:07:42;23.70;28.20
81218;DHT22;70689;52.494;13.420;2023-07-09T00:10:19;23.70;28.10
81218;DHT22;70689;52.494;13.420;2023-07-09T00:12:46;23.70;28.20
81218;DHT22;70689;52.494;13.420;2023-07-09T00:15:14;23.50;28.50
81218;DHT22;70689;52.494;13.420;2023-07-09T00:17:41;23.50;28.60
81218;DHT22;70689;52.494;13.420;2023-07-09T00:20:12;23.50;28.70
81218;DHT22;70689;52.494;13.420;2023-07-09T00:22:40;23.40;29.00
81218;DHT22;70689;52.494;13.420;2023-07-09T00:25:07;23.50;28.70
81218;DHT22;70689;52.494;13.420;2023-07-09T00:27:33;23.50;28.60
81218;DHT22;70689;52.494;13.420;2023-07-09T00:29:59;23.40;28.80
81218;DHT22;70689;52.494;13.420;2023-07-09T00:32:25;23.50;28.90
81218;DHT22;70689;52.494;13.420;2023-07-09T00:34:51;23.50;29.00
81218;DHT22;70689;52.494;13.420;2023-07-09T00:37:21;23.40;29.10
81218;DHT22;70689;52.494;13.420;2023-07-09T00:39:51;23.40;29.30
81218;DHT22;70689;52.494;13.420;2023-07-09T00:42:19;23.40;29.40
81218;DHT22;70689;52.494;13.420;2023-07-09T00:44:46;23.50;29.30
81218;DHT22;70689;52.494;13.420;2023-07-09T00:47:21;23.50;29.10
81218;DHT22;70689;52.494;13.420;2023-07-09T00:50:05;23.50;29.20
81218;DHT22;70689;52.494;13.420;2023-07-09T00:52:41;23.60;29.10
81218;DHT22;70689;52.494;13.420;2023-07-09T00:55:14;23.40;29.20
81218;DHT22;70689;52.494;13.420;2023-07-09T00:57:43;23.30;29.30
81218;DHT22;70689;52.494;13.420;2023-07-09T01:00:13;23.30;29.50
81218;DHT22;70689;52.494;13.420;2023-07-09T01:02:45;23.50;29.30
81218;DHT22;70689;52.494;13.420;2023-07-09T01:05:14;23.30;29.50
81218;DHT22;70689;52.494;13.420;2023-07-09T01:07:42;23.30;29.70
81218;DHT22;70689;52.494;13.420;2023-07-09T01:10:17;23.30;29.80
81218;DHT22;70689;52.494;13.420;2023-07-09T01:12:44;23.20;29.80
81218;DHT22;70689;52.494;13.420;2023-07-09T01:15:12;23.40;29.80
81218;DHT22;70689;52.494;13.420;2023-07-09T01:17:37;23.40;29.70
81218;DHT22;70689;52.494;13.420;2023-07-09T01:20:03;23.40;29.70
81218;DHT22;70689;52.494;13.420;2023-07-09T01:22:33;23.30;29.90
81218;DHT22;70689;52.494;13.420;2023-07-09T01:25:02;23.30;30.00
81218;DHT22;70689;52.494;13.420;2023-07-09T01:27:32;23.20;30.30
81218;DHT22;70689;52.494;13.420;2023-07-09T01:30:37;23.00;30.60
81218;DHT22;70689;52.494;13.420;2023-07-09T01:33:00;23.10;30.50
81218;DHT22;70689;52.494;13.420;2023-07-09T01:35:28;23.00;30.50
81218;DHT22;70689;52.494;13.420;2023-07-09T01:37:54;23.10;30.60
81218;DHT22;70689;52.494;13.420;2023-07-09T01:40:23;23.20;30.30
81218;DHT22;70689;52.494;13.420;2023-07-09T01:42:50;23.20;30.40
81218;DHT22;70689;52.494;13.420;2023-07-09T01:45:17;23.10;30.50
81218;DHT22;70689;52.494;13.420;2023-07-09T01:47:43;23.00;30.80
81218;DHT22;70689;52.494;13.420;2023-07-09T01:50:10;23.00;30.70
81218;DHT22;70689;52.494;13.420;2023-07-09T01:52:38;23.00;31.10
81218;DHT22;70689;52.494;13.420;2023-07-09T01:55:08;23.00;30.90
81218;DHT22;70689;52.494;13.420;2023-07-09T01:57:34;23.00;30.90
81218;DHT22;70689;52.494;13.420;2023-07-09T02:00:08;23.00;30.90
81218;DHT22;70689;52.494;13.420;2023-07-09T02:02:39;22.80;31.10
81218;DHT22;70689;52.494;13.420;2023-07-09T02:05:09;22.70;31.60
81218;DHT22;70689;52.494;13.420;2023-07-09T02:07:35;22.60;32.10
81218;DHT22;70689;52.494;13.420;2023-07-09T02:10:00;22.60;33.30
81218;DHT22;70689;52.494;13.420;2023-07-09T02:12:26;22.50;32.50
81218;DHT22;70689;52.494;13.420;2023-07-09T02:14:52;22.60;32.30
81218;DHT22;70689;52.494;13.420;2023-07-09T02:17:18;22.40;32.70
81218;DHT22;70689;52.494;13.420;2023-07-09T02:19:43;22.60;32.60
81218;DHT22;70689;52.494;13.420;2023-07-09T02:22:10;22.60;32.40
81218;DHT22;70689;52.494;13.420;2023-07-09T02:24:36;22.70;32.20
81218;DHT22;70689;52.494;13.420;2023-07-09T02:27:04;22.60;32.50
81218;DHT22;70689;52.494;13.420;2023-07-09T02:29:30;22.70;32.00
81218;DHT22;70689;52.494;13.420;2023-07-09T02:31:58;22.60;32.40
81218;DHT22;70689;52.494;13.420;2023-07-09T02:34:25;22.60;32.30
81218;DHT22;70689;52.494;13.420;2023-07-09T02:36:56;22.70;32.50
81218;DHT22;70689;52.494;13.420;2023-07-09T02:39:22;22.70;32.10
81218;DHT22;70689;52.494;13.420;2023-07-09T02:41:49;22.60;32.40
81218;DHT22;70689;52.494;13.420;2023-07-09T02:44:16;22.50;32.70
81218;DHT22;70689;52.494;13.420;2023-07-09T02:46:42;22.50;32.90
81218;DHT22;70689;52.494;13.420;2023-07-09T02:49:10;22.30;33.50
81218;DHT22;70689;52.494;13.420;2023-07-09T02:51:36;22.30;33.40
81218;DHT22;70689;52.494;13.420;2023-07-09T02:54:03;22.30;33.70
81218;DHT22;70689;52.494;13.420;2023-07-09T02:56:29;22.30;33.80
81218;DHT22;70689;52.494;13.420;2023-07-09T02:58:55;22.30;33.70
81218;DHT22;70689;52.494;13.420;2023-07-09T03:01:21;22.30;33.80
81218;DHT22;70689;52.494;13.420;2023-07-09T03:03:51;22.50;33.50
81218;DHT22;70689;52.494;13.420;2023-07-09T03:06:19;22.50;33.30
81218;DHT22;70689;52.494;13.420;2023-07-09T03:08:45;22.20;33.90
81218;DHT22;70689;52.494;13.420;2023-07-09T03:11:11;22.00;34.60
81218;DHT22;70689;52.494;13.420;2023-07-09T03:13:37;22.00;34.90
81218;DHT22;70689;52.494;13.420;2023-07-09T03:16:03;22.10;34.60
81218;DHT22;70689;52.494;13.420;2023-07-09T03:18:29;22.20;34.40
81218;DHT22;70689;52.494;13.420;2023-07-09T03:20:54;22.30;34.30
81218;DHT22;70689;52.494;13.420;2023-07-09T03:23:21;22.20;34.50
81218;DHT22;70689;52.494;13.420;2023-07-09T03:25:46;22.10;34.70
81218;DHT22;70689;52.494;13.420;2023-07-09T03:28:13;22.20;34.20
81218;DHT22;70689;52.494;13.420;2023-07-09T03:30:44;22.20;33.90
81218;DHT22;70689;52.494;13.420;2023-07-09T03:33:10;22.20;33.90
81218;DHT22;70689;52.494;13.420;2023-07-09T03:35:36;22.20;34.10
81218;DHT22;70689;52.494;13.420;2023-07-09T03:38:04;22.10;34.50
81218;DHT22;70689;52.494;13.420;2023-07-09T03:40:30;22.30;34.20
81218;DHT22;70689;52.494;13.420;2023-07-09T03:42:56;22.30;34.10
81218;DHT22;70689;52.494;13.420;2023-07-09T03:45:22;22.30;34.30
81218;DHT22;70689;52.494;13.420;2023-07-09T03:47:48;22.30;34.10
81218;DHT22;70689;52.494;13.420;2023-07-09T03:50:13;22.30;34.10
81218;DHT22;70689;52.494;13.420;2023-07-09T03:52:39;22.20;34.10
81218;DHT22;70689;52.494;13.420;2023-07-09T03:55:05;22.20;34.10
81218;DHT22;70689;52.494;13.420;2023-07-09T03:57:31;22.10;34.40
81218;DHT22;70689;52.494;13.420;2023-07-09T03:59:57;22.00;34.50
81218;DHT22;70689;52.494;13.420;2023-07-09T04:02:22;22.10;34.30
81218;DHT22;70689;52.494;13.420;2023-07-09T04:04:48;22.20;33.70
81218;DHT22;70689;52.494;13.420;2023-07-09T04:07:14;22.20;33.50
81218;DHT22;70689;52.494;13.420;2023-07-09T04:09:40;22.20;33.20
81218;DHT22;70689;52.494;13.420;2023-07-09T04:12:06;22.30;33.60
81218;DHT22;70689;52.494;13.420;2023-07-09T04:14:32;22.30;32.80
81218;DHT22;70689;52.494;13.420;2023-07-09T04:16:58;22.30;32.90
81218;DHT22;70689;52.494;13.420;2023-07-09T04:19:24;22.40;32.30
81218;DHT22;70689;52.494;13.420;2023-07-09T04:21:50;22.40;33.50
81218;DHT22;70689;52.494;13.420;2023-07-09T04:24:19;22.40;32.50
81218;DHT22;70689;52.494;13.420;2023-07-09T04:26:46;22.40;32.30
81218;DHT22;70689;52.494;13.420;2023-07-09T04:29:12;22.40;32.30
81218;DHT22;70689;52.494;13.420;2023-07-09T04:31:39;22.40;32.60
81218;DHT22;70689;52.494;13.420;2023-07-09T04:34:05;22.60;32.20
81218;DHT22;70689;52.494;13.420;2023-07-09T04:36:31;22.60;32.30
81218;DHT22;70689;52.494;13.420;2023-07-09T04:38:57;22.60;32.50
81218;DHT22;70689;52.494;13.420;2023-07-09T04:41:23;22.70;32.00
81218;DHT22;70689;52.494;13.420;2023-07-09T04:43:49;22.90;31.70
81218;DHT22;70689;52.494;13.420;2023-07-09T04:46:15;22.90;31.70
81218;DHT22;70689;52.494;13.420;2023-07-09T04:48:40;23.10;31.30
81218;DHT22;70689;52.494;13.420;2023-07-09T04:51:06;23.10;30.90
81218;DHT22;70689;52.494;13.420;2023-07-09T04:53:32;23.30;30.90
81218;DHT22;70689;52.494;13.420;2023-07-09T04:55:57;23.00;30.90
81218;DHT22;70689;52.494;13.420;2023-07-09T04:58:23;23.10;31.00
81218;DHT22;70689;52.494;13.420;2023-07-09T05:00:49;23.10;31.00
81218;DHT22;70689;52.494;13.420;2023-07-09T05:03:20;23.10;31.00
81218;DHT22;70689;52.494;13.420;2023-07-09T05:05:47;23.40;30.50
81218;DHT22;70689;52.494;13.420;2023-07-09T05:08:13;23.30;30.50
81218;DHT22;70689;52.494;13.420;2023-07-09T05:10:46;23.20;31.40
81218;DHT22;70689;52.494;13.420;2023-07-09T05:13:12;23.50;30.00
81218;DHT22;70689;52.494;13.420;2023-07-09T05:15:44;23.50;29.70
81218;DHT22;70689;52.494;13.420;2023-07-09T05:18:14;23.50;29.80
81218;DHT22;70689;52.494;13.420;2023-07-09T05:20:40;23.60;29.70
81218;DHT22;70689;52.494;13.420;2023-07-09T05:23:07;23.70;29.40
81218;DHT22;70689;52.494;13.420;2023-07-09T05:25:33;23.80;29.50
81218;DHT22;70689;52.494;13.420;2023-07-09T05:27:58;23.90;29.50
81218;DHT22;70689;52.494;13.420;2023-07-09T05:30:25;23.90;29.50
81218;DHT22;70689;52.494;13.420;2023-07-09T05:32:53;24.10;29.60
81218;DHT22;70689;52.494;13.420;2023-07-09T05:35:21;24.20;29.20
81218;DHT22;70689;52.494;13.420;2023-07-09T05:37:47;24.30;29.00
81218;DHT22;70689;52.494;13.420;2023-07-09T05:40:13;24.40;29.10
81218;DHT22;70689;52.494;13.420;2023-07-09T05:42:39;24.50;28.80
81218;DHT22;70689;52.494;13.420;2023-07-09T05:45:05;24.60;28.50
81218;DHT22;70689;52.494;13.420;2023-07-09T05:47:30;24.60;28.70
81218;DHT22;70689;52.494;13.420;2023-07-09T05:49:56;24.70;28.50
81218;DHT22;70689;52.494;13.420;2023-07-09T05:52:23;24.80;27.90
81218;DHT22;70689;52.494;13.420;2023-07-09T05:54:50;24.90;27.90
81218;DHT22;70689;52.494;13.420;2023-07-09T05:57:16;25.30;27.20
81218;DHT22;70689;52.494;13.420;2023-07-09T05:59:42;25.20;27.40
81218;DHT22;70689;52.494;13.420;2023-07-09T06:02:12;25.10;28.10
81218;DHT22;70689;52.494;13.420;2023-07-09T06:04:39;25.20;28.00
81218;DHT22;70689;52.494;13.420;2023-07-09T06:07:05;25.20;28.00
81218;DHT22;70689;52.494;13.420;2023-07-09T06:09:30;25.20;28.00
81218;DHT22;70689;52.494;13.420;2023-07-09T06:11:57;25.40;28.10
81218;DHT22;70689;52.494;13.420;2023-07-09T06:14:23;25.50;27.90
81218;DHT22;70689;52.494;13.420;2023-07-09T06:16:49;25.40;27.90
81218;DHT22;70689;52.494;13.420;2023-07-09T06:19:14;25.60;27.70
81218;DHT22;70689;52.494;13.420;2023-07-09T06:21:40;25.70;27.80
81218;DHT22;70689;52.494;13.420;2023-07-09T06:24:07;25.70;27.60
81218;DHT22;70689;52.494;13.420;2023-07-09T06:26:33;25.90;27.00
81218;DHT22;70689;52.494;13.420;2023-07-09T06:28:59;25.90;26.60
81218;DHT22;70689;52.494;13.420;2023-07-09T06:31:25;26.00;26.50
81218;DHT22;70689;52.494;13.420;2023-07-09T06:33:51;26.20;26.10
81218;DHT22;70689;52.494;13.420;2023-07-09T06:36:18;26.20;26.80
81218;DHT22;70689;52.494;13.420;2023-07-09T06:38:44;26.10;26.40
81218;DHT22;70689;52.494;13.420;2023-07-09T06:41:10;26.10;26.70
81218;DHT22;70689;52.494;13.420;2023-07-09T06:43:36;26.30;26.40
81218;DHT22;70689;52.494;13.420;2023-07-09T06:46:05;26.30;26.50
81218;DHT22;70689;52.494;13.420;2023-07-09T06:48:31;26.40;27.60
81218;DHT22;70689;52.494;13.420;2023-07-09T06:50:58;26.50;26.30
81218;DHT22;70689;52.494;13.420;2023-07-09T06:53:25;26.60;26.20
81218;DHT22;70689;52.494;13.420;2023-07-09T06:55:51;26.80;26.60
81218;DHT22;70689;52.494;13.420;2023-07-09T06:58:21;26.90;25.90
81218;DHT22;70689;52.494;13.420;2023-07-09T07:00:57;27.00;25.90
81218;DHT22;70689;52.494;13.420;2023-07-09T07:03:24;27.10;26.20
81218;DHT22;70689;52.494;13.420;2023-07-09T07:05:52;27.40;26.00
81218;DHT22;70689;52.494;13.420;2023-07-09T07:08:20;27.40;25.40
81218;DHT22;70689;52.494;13.420;2023-07-09T07:10:49;27.60;25.20
81218;DHT22;70689;52.494;13.420;2023-07-09T07:13:15;27.50;25.20
81218;DHT22;70689;52.494;13.420;2023-07-09T07:15:41;27.60;25.50
81218;DHT22;70689;52.494;13.420;2023-07-09T07:18:08;27.70;25.30
81218;DHT22;70689;52.494;13.420;2023-07-09T07:20:34;28.40;24.60
81218;DHT22;70689;52.494;13.420;2023-07-09T07:23:00;29.60;23.10
81218;DHT22;70689;52.494;13.420;2023-07-09T07:25:25;30.90;21.00
81218;DHT22;70689;52.494;13.420;2023-07-09T07:27:51;32.10;19.50
81218;DHT22;70689;52.494;13.420;2023-07-09T07:30:17;32.80;18.80
81218;DHT22;70689;52.494;13.420;2023-07-09T07:32:46;33.60;17.50
81218;DHT22;70689;52.494;13.420;2023-07-09T07:35:12;34.50;17.10
81218;DHT22;70689;52.494;13.420;2023-07-09T07:37:42;35.30;16.50
81218;DHT22;70689;52.494;13.420;2023-07-09T07:40:09;35.80;14.90
81218;DHT22;70689;52.494;13.420;2023-07-09T07:42:35;36.20;14.80
81218;DHT22;70689;52.494;13.420;2023-07-09T07:45:01;36.40;14.50
81218;DHT22;70689;52.494;13.420;2023-07-09T07:47:27;37.20;13.90
81218;DHT22;70689;52.494;13.420;2023-07-09T07:49:53;37.50;13.40
81218;DHT22;70689;52.494;13.420;2023-07-09T07:52:19;37.80;13.00
81218;DHT22;70689;52.494;13.420;2023-07-09T07:54:45;38.00;13.90
81218;DHT22;70689;52.494;13.420;2023-07-09T07:57:11;38.50;12.90
81218;DHT22;70689;52.494;13.420;2023-07-09T07:59:37;38.80;12.30
81218;DHT22;70689;52.494;13.420;2023-07-09T08:02:05;39.20;11.70
81218;DHT22;70689;52.494;13.420;2023-07-09T08:04:32;39.00;12.40
81218;DHT22;70689;52.494;13.420;2023-07-09T08:06:58;38.90;12.10
81218;DHT22;70689;52.494;13.420;2023-07-09T08:09:24;39.70;11.80
81218;DHT22;70689;52.494;13.420;2023-07-09T08:11:50;38.70;12.00
81218;DHT22;70689;52.494;13.420;2023-07-09T08:14:17;38.10;12.80
81218;DHT22;70689;52.494;13.420;2023-07-09T08:16:42;38.20;13.00
81218;DHT22;70689;52.494;13.420;2023-07-09T08:19:08;39.10;12.30
81218;DHT22;70689;52.494;13.420;2023-07-09T08:21:34;39.00;12.10
81218;DHT22;70689;52.494;13.420;2023-07-09T08:24:00;38.90;11.80
81218;DHT22;70689;52.494;13.420;2023-07-09T08:26:25;39.10;11.70
81218;DHT22;70689;52.494;13.420;2023-07-09T08:28:51;39.50;11.40
81218;DHT22;70689;52.494;13.420;2023-07-09T08:31:17;40.00;11.10
81218;DHT22;70689;52.494;13.420;2023-07-09T08:33:43;40.20;10.90
81218;DHT22;70689;52.494;13.420;2023-07-09T08:36:09;40.50;10.40
81218;DHT22;70689;52.494;13.420;2023-07-09T08:38:34;40.90;10.30
81218;DHT22;70689;52.494;13.420;2023-07-09T08:41:25;41.00;10.40
81218;DHT22;70689;52.494;13.420;2023-07-09T08:43:58;41.00;9.40
81218;DHT22;70689;52.494;13.420;2023-07-09T08:46:48;40.80;10.10
81218;DHT22;70689;52.494;13.420;2023-07-09T08:49:29;41.20;10.10
81218;DHT22;70689;52.494;13.420;2023-07-09T08:51:57;40.50;10.50
81218;DHT22;70689;52.494;13.420;2023-07-09T08:54:30;39.70;10.80
81218;DHT22;70689;52.494;13.420;2023-07-09T08:57:02;39.20;11.40
81218;DHT22;70689;52.494;13.420;2023-07-09T08:59:30;38.80;11.90
81218;DHT22;70689;52.494;13.420;2023-07-09T09:01:58;38.30;12.70
81218;DHT22;70689;52.494;13.420;2023-07-09T09:04:31;37.20;13.40
81218;DHT22;70689;52.494;13.420;2023-07-09T09:07:18;36.50;13.50
81218;DHT22;70689;52.494;13.420;2023-07-09T09:09:59;35.70;14.40
81218;DHT22;70689;52.494;13.420;2023-07-09T09:12:38;35.40;14.70
81218;DHT22;70689;52.494;13.420;2023-07-09T09:15:15;35.40;14.70
81218;DHT22;70689;52.494;13.420;2023-07-09T09:17:58;36.00;14.30
81218;DHT22;70689;52.494;13.420;2023-07-09T09:20:34;36.00;14.00
81218;DHT22;70689;52.494;13.420;2023-07-09T09:25:33;35.90;14.30
81218;DHT22;70689;52.494;13.420;2023-07-09T09:28:01;36.80;13.60
81218;DHT22;70689;52.494;13.420;2023-07-09T09:30:27;37.00;13.20
81218;DHT22;70689;52.494;13.420;2023-07-09T09:32:56;36.60;12.90
81218;DHT22;70689;52.494;13.420;2023-07-09T09:35:31;36.40;12.80
81218;DHT22;70689;52.494;13.420;2023-07-09T09:37:58;36.00;13.30
81218;DHT22;70689;52.494;13.420;2023-07-09T09:40:26;36.00;12.40
81218;DHT22;70689;52.494;13.420;2023-07-09T09:42:55;35.90;11.90
81218;DHT22;70689;52.494;13.420;2023-07-09T09:45:26;35.80;12.70
81218;DHT22;70689;52.494;13.420;2023-07-09T09:47:59;35.30;13.30
81218;DHT22;70689;52.494;13.420;2023-07-09T09:50:27;35.10;13.20
81218;DHT22;70689;52.494;13.420;2023-07-09T09:52:53;35.90;11.80
81218;DHT22;70689;52.494;13.420;2023-07-09T09:55:26;36.90;10.50
81218;DHT22;70689;52.494;13.420;2023-07-09T09:57:53;38.70;9.30
81218;DHT22;70689;52.494;13.420;2023-07-09T10:00:24;39.30;9.10
81218;DHT22;70689;52.494;13.420;2023-07-09T10:02:52;38.30;9.30
81218;DHT22;70689;52.494;13.420;2023-07-09T10:05:32;37.00;11.40
81218;DHT22;70689;52.494;13.420;2023-07-09T10:08:06;36.40;11.90
81218;DHT22;70689;52.494;13.420;2023-07-09T10:10:33;36.60;11.90
81218;DHT22;70689;52.494;13.420;2023-07-09T10:13:25;36.80;11.70
81218;DHT22;70689;52.494;13.420;2023-07-09T10:16:13;36.60;12.00
81218;DHT22;70689;52.494;13.420;2023-07-09T10:18:53;36.40;12.20
81218;DHT22;70689;52.494;13.420;2023-07-09T10:27:09;36.30;12.70
81218;DHT22;70689;52.494;13.420;2023-07-09T10:29:45;36.30;12.60
81218;DHT22;70689;52.494;13.420;2023-07-09T10:35:26;37.00;12.10
81218;DHT22;70689;52.494;13.420;2023-07-09T10:40:50;38.40;10.70
81218;DHT22;70689;52.494;13.420;2023-07-09T10:43:35;40.20;9.60
81218;DHT22;70689;52.494;13.420;2023-07-09T10:46:17;41.40;8.60
81218;DHT22;70689;52.494;13.420;2023-07-09T10:48:48;41.40;8.40
81218;DHT22;70689;52.494;13.420;2023-07-09T10:51:23;41.20;8.50
81218;DHT22;70689;52.494;13.420;2023-07-09T10:53:58;41.70;7.90
81218;DHT22;70689;52.494;13.420;2023-07-09T10:56:27;42.90;6.90
81218;DHT22;70689;52.494;13.420;2023-07-09T10:59:35;43.90;7.30
81218;DHT22;70689;52.494;13.420;2023-07-09T11:02:24;45.10;6.00
81218;DHT22;70689;52.494;13.420;2023-07-09T11:04:55;46.20;5.60
81218;DHT22;70689;52.494;13.420;2023-07-09T11:07:39;46.60;4.50
81218;DHT22;70689;52.494;13.420;2023-07-09T11:10:21;46.30;5.00
81218;DHT22;70689;52.494;13.420;2023-07-09T11:13:11;46.20;5.10
81218;DHT22;70689;52.494;13.420;2023-07-09T11:15:42;46.80;4.60
81218;DHT22;70689;52.494;13.420;2023-07-09T11:18:13;47.00;4.30
81218;DHT22;70689;52.494;13.420;2023-07-09T11:20:44;47.30;4.00
81218;DHT22;70689;52.494;13.420;2023-07-09T11:23:20;47.80;4.50
81218;DHT22;70689;52.494;13.420;2023-07-09T11:25:49;48.10;3.70
81218;DHT22;70689;52.494;13.420;2023-07-09T11:28:37;48.20;3.60
81218;DHT22;70689;52.494;13.420;2023-07-09T11:31:08;47.30;3.80
81218;DHT22;70689;52.494;13.420;2023-07-09T11:33:44;47.40;3.80
81218;DHT22;70689;52.494;13.420;2023-07-09T11:36:13;47.80;3.70
81218;DHT22;70689;52.494;13.420;2023-07-09T11:38:45;48.00;3.50
81218;DHT22;70689;52.494;13.420;2023-07-09T11:43:49;47.30;3.60
81218;DHT22;70689;52.494;13.420;2023-07-09T11:46:19;47.60;4.20
81218;DHT22;70689;52.494;13.420;2023-07-09T11:48:48;48.10;4.50
81218;DHT22;70689;52.494;13.420;2023-07-09T11:51:18;47.60;3.60
81218;DHT22;70689;52.494;13.420;2023-07-09T11:53:49;48.10;3.40
81218;DHT22;70689;52.494;13.420;2023-07-09T11:56:22;48.20;3.70
81218;DHT22;70689;52.494;13.420;2023-07-09T11:58:51;48.20;3.20
81218;DHT22;70689;52.494;13.420;2023-07-09T12:01:21;47.50;3.90
81218;DHT22;70689;52.494;13.420;2023-07-09T12:03:48;46.70;4.50
81218;DHT22;70689;52.494;13.420;2023-07-09T12:06:21;46.30;4.80
81218;DHT22;70689;52.494;13.420;2023-07-09T12:08:48;46.10;5.40
81218;DHT22;70689;52.494;13.420;2023-07-09T12:11:26;45.30;4.90
81218;DHT22;70689;52.494;13.420;2023-07-09T12:13:53;44.80;5.50
81218;DHT22;70689;52.494;13.420;2023-07-09T12:16:25;44.90;5.50
81218;DHT22;70689;52.494;13.420;2023-07-09T12:18:52;44.30;5.90
81218;DHT22;70689;52.494;13.420;2023-07-09T12:21:18;43.90;6.20
81218;DHT22;70689;52.494;13.420;2023-07-09T12:23:44;44.30;6.20
81218;DHT22;70689;52.494;13.420;2023-07-09T12:26:14;44.50;5.80
81218;DHT22;70689;52.494;13.420;2023-07-09T12:28:40;43.50;6.00
81218;DHT22;70689;52.494;13.420;2023-07-09T12:31:13;42.80;6.50
81218;DHT22;70689;52.494;13.420;2023-07-09T12:33:49;42.80;6.90
81218;DHT22;70689;52.494;13.420;2023-07-09T12:36:17;43.70;6.30
81218;DHT22;70689;52.494;13.420;2023-07-09T12:38:46;44.90;5.50
81218;DHT22;70689;52.494;13.420;2023-07-09T12:43:44;45.40;5.30
81218;DHT22;70689;52.494;13.420;2023-07-09T12:46:10;44.60;4.80
81218;DHT22;70689;52.494;13.420;2023-07-09T12:48:36;44.00;6.00
81218;DHT22;70689;52.494;13.420;2023-07-09T12:51:07;43.00;7.00
81218;DHT22;70689;52.494;13.420;2023-07-09T12:53:33;42.30;7.00
81218;DHT22;70689;52.494;13.420;2023-07-09T12:56:00;41.80;7.90
81218;DHT22;70689;52.494;13.420;2023-07-09T12:58:32;41.30;8.40
81218;DHT22;70689;52.494;13.420;2023-07-09T13:01:03;40.80;8.70
81218;DHT22;70689;52.494;13.420;2023-07-09T13:03:30;39.90;9.50
81218;DHT22;70689;52.494;13.420;2023-07-09T13:06:02;39.20;9.60
81218;DHT22;70689;52.494;13.420;2023-07-09T13:08:40;38.70;10.20
81218;DHT22;70689;52.494;13.420;2023-07-09T13:11:15;38.20;10.00
81218;DHT22;70689;52.494;13.420;2023-07-09T13:13:41;38.00;10.50
81218;DHT22;70689;52.494;13.420;2023-07-09T13:16:07;38.10;10.90
81218;DHT22;70689;52.494;13.420;2023-07-09T13:18:32;38.00;10.30
81218;DHT22;70689;52.494;13.420;2023-07-09T13:20:59;38.20;10.50
81218;DHT22;70689;52.494;13.420;2023-07-09T13:23:29;38.50;10.40
81218;DHT22;70689;52.494;13.420;2023-07-09T13:25:58;38.50;10.20
81218;DHT22;70689;52.494;13.420;2023-07-09T13:28:31;38.60;10.30
81218;DHT22;70689;52.494;13.420;2023-07-09T13:31:08;38.30;10.50
81218;DHT22;70689;52.494;13.420;2023-07-09T13:33:35;37.70;11.00
81218;DHT22;70689;52.494;13.420;2023-07-09T13:36:02;37.30;11.40
81218;DHT22;70689;52.494;13.420;2023-07-09T13:38:28;36.60;12.00
81218;DHT22;70689;52.494;13.420;2023-07-09T13:40:57;36.40;12.70
81218;DHT22;70689;52.494;13.420;2023-07-09T13:43:30;35.90;12.10
81218;DHT22;70689;52.494;13.420;2023-07-09T13:45:57;35.70;12.60
81218;DHT22;70689;52.494;13.420;2023-07-09T13:48:23;35.80;12.90
81218;DHT22;70689;52.494;13.420;2023-07-09T13:50:51;35.60;12.50
81218;DHT22;70689;52.494;13.420;2023-07-09T13:53:23;35.50;12.70
81218;DHT22;70689;52.494;13.420;2023-07-09T13:55:49;35.50;13.40
81218;DHT22;70689;52.494;13.420;2023-07-09T13:58:18;35.30;12.90
81218;DHT22;70689;52.494;13.420;2023-07-09T14:00:45;35.50;12.90
81218;DHT22;70689;52.494;13.420;2023-07-09T14:03:17;35.60;12.90
81218;DHT22;70689;52.494;13.420;2023-07-09T14:05:44;35.60;12.70
81218;DHT22;70689;52.494;13.420;2023-07-09T14:08:11;35.80;12.80
81218;DHT22;70689;52.494;13.420;2023-07-09T14:10:37;35.80;12.50
81218;DHT22;70689;52.494;13.420;2023-07-09T14:13:03;35.90;11.90
81218;DHT22;70689;52.494;13.420;2023-07-09T14:15:29;35.90;12.00
81218;DHT22;70689;52.494;13.420;2023-07-09T14:17:55;35.70;12.40
81218;DHT22;70689;52.494;13.420;2023-07-09T14:20:22;35.40;12.70
81218;DHT22;70689;52.494;13.420;2023-07-09T14:22:49;35.10;12.90
81218;DHT22;70689;52.494;13.420;2023-07-09T14:25:23;35.10;13.10
81218;DHT22;70689;52.494;13.420;2023-07-09T14:27:50;34.70;13.40
81218;DHT22;70689;52.494;13.420;2023-07-09T14:30:19;34.60;13.40
81218;DHT22;70689;52.494;13.420;2023-07-09T14:32:47;34.50;13.60
81218;DHT22;70689;52.494;13.420;2023-07-09T14:35:23;34.30;13.70
81218;DHT22;70689;52.494;13.420;2023-07-09T14:37:51;34.20;15.00
81218;DHT22;70689;52.494;13.420;2023-07-09T14:40:18;34.20;14.20
81218;DHT22;70689;52.494;13.420;2023-07-09T14:42:45;34.20;14.10
81218;DHT22;70689;52.494;13.420;2023-07-09T14:45:21;34.20;14.10
81218;DHT22;70689;52.494;13.420;2023-07-09T14:47:49;34.20;14.20
81218;DHT22;70689;52.494;13.420;2023-07-09T14:50:15;34.10;14.30
81218;DHT22;70689;52.494;13.420;2023-07-09T14:52:43;34.00;13.90
81218;DHT22;70689;52.494;13.420;2023-07-09T14:55:20;34.20;14.20
81218;DHT22;70689;52.494;13.420;2023-07-09T14:57:46;34.20;13.90
81218;DHT22;70689;52.494;13.420;2023-07-09T15:00:17;34.30;13.70
81218;DHT22;70689;52.494;13.420;2023-07-09T15:02:44;34.40;13.70
81218;DHT22;70689;52.494;13.420;2023-07-09T15:05:23;34.50;14.20
81218;DHT22;70689;52.494;13.420;2023-07-09T15:07:49;34.70;14.60
81218;DHT22;70689;52.494;13.420;2023-07-09T15:10:22;34.50;14.40
81218;DHT22;70689;52.494;13.420;2023-07-09T15:12:48;34.50;14.70
81218;DHT22;70689;52.494;13.420;2023-07-09T15:17:43;34.50;13.50
81218;DHT22;70689;52.494;13.420;2023-07-09T15:20:20;34.40;13.30
81218;DHT22;70689;52.494;13.420;2023-07-09T15:22:48;34.50;13.30
81218;DHT22;70689;52.494;13.420;2023-07-09T15:25:18;34.40;13.90
81218;DHT22;70689;52.494;13.420;2023-07-09T15:30:21;34.30;14.00
81218;DHT22;70689;52.494;13.420;2023-07-09T15:32:48;34.10;14.20
81218;DHT22;70689;52.494;13.420;2023-07-09T15:35:17;34.10;14.70
81218;DHT22;70689;52.494;13.420;2023-07-09T15:37:44;34.20;14.10
81218;DHT22;70689;52.494;13.420;2023-07-09T15:40:19;34.20;14.30
81218;DHT22;70689;52.494;13.420;2023-07-09T15:42:50;34.30;14.10
81218;DHT22;70689;52.494;13.420;2023-07-09T15:45:18;34.40;13.70
81218;DHT22;70689;52.494;13.420;2023-07-09T15:47:49;34.30;14.10
81218;DHT22;70689;52.494;13.420;2023-07-09T15:50:24;34.30;13.70
81218;DHT22;70689;52.494;13.420;2023-07-09T15:52:51;34.30;13.90